Time,TemperatureF,DewpointF,PressureIn,WindDirection,WindDirectionDegrees,WindSpeedMPH,WindSpeedGustMPH,Humidity,HourlyPrecipIn,Conditions,Clouds,dailyrainin,SolarRadiationWatts/m^2,SoftwareType,DateUTC
2013-12-07 00:03:00,13.0,3.0,-100.00,WSW,237,9.0,15.0,65,0.00,,,0.00,0.000000,,2013-12-07 05:03:00,
2013-12-07 00:12:00,13.0,3.0,-100.00,WSW,237,9.0,15.0,65,0.00,,,0.00,0.000000,,2013-12-07 05:12:00,
2013-12-07 00:43:00,11.0,2.0,-100.00,WSW,240,9.0,15.0,67,0.00,,,0.00,0.000000,,2013-12-07 05:43:00,
2013-12-07 00:53:00,11.0,2.0,-100.00,WSW,240,9.0,15.0,67,0.00,,,0.00,0.000000,,2013-12-07 05:53:00,
2013-12-07 01:02:00,11.0,2.0,-100.00,WSW,240,9.0,15.0,67,0.00,,,0.00,0.000000,,2013-12-07 06:02:00,
2013-12-07 01:12:00,11.0,2.0,-100.00,WSW,240,9.0,15.0,67,0.00,,,0.00,0.000000,,2013-12-07 06:12:00,
2013-12-07 01:43:00,10.0,2.0,-100.00,WSW,248,9.0,13.0,70,0.00,,,0.00,0.000000,,2013-12-07 06:43:00,
2013-12-07 01:53:00,10.0,2.0,-100.00,WSW,248,9.0,13.0,70,0.00,,,0.00,0.000000,,2013-12-07 06:53:00,
2013-12-07 02:02:00,10.0,2.0,-100.00,WSW,248,9.0,13.0,70,0.00,,,0.00,0.000000,,2013-12-07 07:02:00,
2013-12-07 02:12:00,10.0,2.0,-100.00,WSW,248,9.0,13.0,70,0.00,,,0.00,0.000000,,2013-12-07 07:12:00,
2013-12-07 02:42:00,10.0,3.0,-100.00,WSW,255,9.0,15.0,71,0.00,,,0.00,0.000000,,2013-12-07 07:42:00,
2013-12-07 02:53:00,10.0,3.0,-100.00,WSW,255,9.0,15.0,71,0.00,,,0.00,0.000000,,2013-12-07 07:53:00,
2013-12-07 03:02:00,10.0,3.0,-100.00,WSW,255,9.0,15.0,71,0.00,,,0.00,0.000000,,2013-12-07 08:02:00,
2013-12-07 03:12:00,10.0,3.0,-100.00,WSW,255,9.0,15.0,71,0.00,,,0.00,0.000000,,2013-12-07 08:12:00,
2013-12-07 03:42:00,10.0,3.0,-100.00,WSW,255,12.0,18.0,71,0.00,,,0.00,0.000000,,2013-12-07 08:42:00,
2013-12-07 03:52:00,10.0,3.0,-100.00,WSW,255,12.0,18.0,71,0.00,,,0.00,0.000000,,2013-12-07 08:52:00,
2013-12-07 04:02:00,10.0,3.0,-100.00,WSW,255,12.0,18.0,71,0.00,,,0.00,0.000000,,2013-12-07 09:02:00,
2013-12-07 04:12:00,10.0,3.0,-100.00,WSW,255,12.0,18.0,71,0.00,,,0.00,0.000000,,2013-12-07 09:12:00,
2013-12-07 04:44:00,9.0,2.0,-100.00,WSW,256,11.0,19.0,72,0.00,,,0.00,0.000000,,2013-12-07 09:44:00,
2013-12-07 05:13:00,9.0,2.0,-100.00,WSW,256,11.0,19.0,72,0.00,,,0.00,0.000000,,2013-12-07 10:13:00,
2013-12-07 05:43:00,8.0,1.0,-100.00,WSW,253,10.0,18.0,72,0.00,,,0.00,0.000000,,2013-12-07 10:43:00,
2013-12-07 05:53:00,8.0,1.0,-100.00,WSW,253,10.0,18.0,72,0.00,,,0.00,0.000000,,2013-12-07 10:53:00,
2013-12-07 06:02:00,8.0,1.0,-100.00,WSW,253,10.0,18.0,72,0.00,,,0.00,0.000000,,2013-12-07 11:02:00,
2013-12-07 06:12:00,8.0,1.0,-100.00,WSW,253,10.0,18.0,72,0.00,,,0.00,0.000000,,2013-12-07 11:12:00,
2013-12-07 06:42:00,8.0,1.0,-100.00,West,260,10.0,15.0,72,0.00,,,0.00,0.000000,,2013-12-07 11:42:00,
2013-12-07 06:52:00,8.0,1.0,-100.00,West,260,10.0,15.0,72,0.00,,,0.00,0.000000,,2013-12-07 11:52:00,
2013-12-07 07:02:00,8.0,1.0,-100.00,West,260,10.0,15.0,72,0.00,,,0.00,0.000000,,2013-12-07 12:02:00,
2013-12-07 07:12:00,8.0,1.0,-100.00,West,260,10.0,15.0,72,0.00,,,0.00,0.000000,,2013-12-07 12:12:00,
2013-12-07 07:43:00,7.0,0.0,-100.00,WSW,255,8.0,16.0,71,0.00,,,0.00,0.000000,,2013-12-07 12:43:00,
2013-12-07 07:52:00,7.0,0.0,-100.00,WSW,255,8.0,16.0,71,0.00,,,0.00,0.000000,,2013-12-07 12:52:00,
2013-12-07 08:02:00,7.0,0.0,-100.00,WSW,255,8.0,16.0,71,0.00,,,0.00,0.000000,,2013-12-07 13:02:00,
2013-12-07 08:42:00,7.0,0.0,-100.00,WSW,257,9.0,14.0,72,0.00,,,0.00,2.000000,,2013-12-07 13:42:00,
2013-12-07 08:52:00,7.0,0.0,-100.00,WSW,257,9.0,14.0,72,0.00,,,0.00,2.000000,,2013-12-07 13:52:00,
2013-12-07 09:02:00,7.0,0.0,-100.00,WSW,257,9.0,14.0,72,0.00,,,0.00,2.000000,,2013-12-07 14:02:00,
2013-12-07 09:52:00,8.0,-1.0,-100.00,WSW,244,9.0,15.0,67,0.00,,,0.00,82.000000,,2013-12-07 14:52:00,
2013-12-07 10:02:00,8.0,-1.0,-100.00,WSW,244,9.0,15.0,67,0.00,,,0.00,82.000000,,2013-12-07 15:02:00,
2013-12-07 10:43:00,12.0,1.0,-100.00,WSW,254,11.0,16.0,61,0.00,,,0.00,251.000000,,2013-12-07 15:43:00,
2013-12-07 10:54:00,12.0,1.0,-100.00,WSW,254,11.0,16.0,61,0.00,,,0.00,251.000000,,2013-12-07 15:54:00,
2013-12-07 11:04:00,12.0,1.0,-100.00,WSW,254,11.0,16.0,61,0.00,,,0.00,251.000000,,2013-12-07 16:04:00,
2013-12-07 11:13:00,12.0,1.0,-100.00,WSW,254,11.0,16.0,61,0.00,,,0.00,251.000000,,2013-12-07 16:13:00,
2013-12-07 11:43:00,15.0,3.0,-100.00,WSW,250,12.0,17.0,57,0.00,,,0.00,385.000000,,2013-12-07 16:43:00,
2013-12-07 11:53:00,15.0,3.0,-100.00,WSW,250,12.0,17.0,57,0.00,,,0.00,385.000000,,2013-12-07 16:53:00,
2013-12-07 12:02:00,15.0,3.0,-100.00,WSW,250,12.0,17.0,57,0.00,,,0.00,385.000000,,2013-12-07 17:02:00,
2013-12-07 12:12:00,15.0,3.0,-100.00,WSW,250,12.0,17.0,57,0.00,,,0.00,385.000000,,2013-12-07 17:12:00,
2013-12-07 12:43:00,18.0,4.0,-100.00,WSW,247,11.0,19.0,54,0.00,,,0.00,474.000000,,2013-12-07 17:43:00,
2013-12-07 12:52:00,18.0,4.0,-100.00,WSW,247,11.0,19.0,54,0.00,,,0.00,474.000000,,2013-12-07 17:52:00,
2013-12-07 13:02:00,18.0,4.0,-100.00,WSW,247,11.0,19.0,54,0.00,,,0.00,474.000000,,2013-12-07 18:02:00,
2013-12-07 13:12:00,18.0,4.0,-100.00,WSW,247,11.0,19.0,54,0.00,,,0.00,474.000000,,2013-12-07 18:12:00,
2013-12-07 13:43:00,19.0,4.0,-100.00,WSW,253,13.0,20.0,51,0.00,,,0.00,486.000000,,2013-12-07 18:43:00,
2013-12-07 13:52:00,19.0,4.0,-100.00,WSW,253,13.0,20.0,51,0.00,,,0.00,486.000000,,2013-12-07 18:52:00,
2013-12-07 14:02:00,19.0,4.0,-100.00,WSW,253,13.0,20.0,51,0.00,,,0.00,486.000000,,2013-12-07 19:02:00,
2013-12-07 14:11:00,19.0,4.0,-100.00,WSW,253,13.0,20.0,51,0.00,,,0.00,486.000000,,2013-12-07 19:11:00,
2013-12-07 14:42:00,20.0,3.0,-100.00,WSW,241,12.0,19.0,47,0.00,,,0.00,453.000000,,2013-12-07 19:42:00,
2013-12-07 14:52:00,20.0,3.0,-100.00,WSW,241,12.0,19.0,47,0.00,,,0.00,453.000000,,2013-12-07 19:52:00,
2013-12-07 15:02:00,20.0,3.0,-100.00,WSW,241,12.0,19.0,47,0.00,,,0.00,453.000000,,2013-12-07 20:02:00,
2013-12-07 15:11:00,20.0,3.0,-100.00,WSW,241,12.0,19.0,47,0.00,,,0.00,453.000000,,2013-12-07 20:11:00,
2013-12-07 15:42:00,19.0,3.0,-100.00,West,272,10.0,16.0,49,0.00,,,0.00,258.000000,,2013-12-07 20:42:00,
2013-12-07 15:53:00,19.0,3.0,-100.00,West,272,10.0,16.0,49,0.00,,,0.00,258.000000,,2013-12-07 20:53:00,
2013-12-07 16:02:00,19.0,3.0,-100.00,West,272,10.0,16.0,49,0.00,,,0.00,258.000000,,2013-12-07 21:02:00,
2013-12-07 16:12:00,19.0,3.0,-100.00,West,272,10.0,16.0,49,0.00,,,0.00,258.000000,,2013-12-07 21:12:00,
2013-12-07 16:43:00,17.0,2.0,-100.00,WSW,251,11.0,19.0,52,0.00,,,0.00,203.000000,,2013-12-07 21:43:00,
2013-12-07 16:54:00,17.0,2.0,-100.00,WSW,251,11.0,19.0,52,0.00,,,0.00,203.000000,,2013-12-07 21:54:00,
2013-12-07 17:03:00,17.0,2.0,-100.00,WSW,251,11.0,19.0,52,0.00,,,0.00,203.000000,,2013-12-07 22:03:00,
2013-12-07 17:13:00,17.0,2.0,-100.00,WSW,251,11.0,19.0,52,0.00,,,0.00,203.000000,,2013-12-07 22:13:00,
2013-12-07 17:43:00,14.0,2.0,-100.00,WSW,238,11.0,18.0,57,0.00,,,0.00,35.000000,,2013-12-07 22:43:00,
2013-12-07 17:53:00,14.0,2.0,-100.00,WSW,238,11.0,18.0,57,0.00,,,0.00,35.000000,,2013-12-07 22:53:00,
2013-12-07 18:03:00,14.0,2.0,-100.00,WSW,238,11.0,18.0,57,0.00,,,0.00,35.000000,,2013-12-07 23:03:00,
2013-12-07 18:12:00,14.0,2.0,-100.00,WSW,238,11.0,18.0,57,0.00,,,0.00,35.000000,,2013-12-07 23:12:00,
2013-12-07 18:43:00,12.0,0.0,-100.00,WSW,238,10.0,15.0,59,0.00,,,0.00,0.000000,,2013-12-07 23:43:00,
2013-12-07 18:52:00,12.0,0.0,-100.00,WSW,238,10.0,15.0,59,0.00,,,0.00,0.000000,,2013-12-07 23:52:00,
2013-12-07 19:02:00,12.0,0.0,-100.00,WSW,238,10.0,15.0,59,0.00,,,0.00,0.000000,,2013-12-08 00:02:00,
2013-12-07 19:12:00,12.0,0.0,-100.00,WSW,238,10.0,15.0,59,0.00,,,0.00,0.000000,,2013-12-08 00:12:00,
2013-12-07 19:42:00,11.0,0.0,-100.00,WSW,237,10.0,14.0,59,0.00,,,0.00,0.000000,,2013-12-08 00:42:00,
2013-12-07 19:52:00,11.0,0.0,-100.00,WSW,237,10.0,14.0,59,0.00,,,0.00,0.000000,,2013-12-08 00:52:00,
2013-12-07 20:02:00,11.0,0.0,-100.00,WSW,237,10.0,14.0,59,0.00,,,0.00,0.000000,,2013-12-08 01:02:00,
2013-12-07 20:12:00,11.0,0.0,-100.00,WSW,237,10.0,14.0,59,0.00,,,0.00,0.000000,,2013-12-08 01:12:00,
2013-12-07 20:42:00,10.0,-1.0,-100.00,WSW,239,10.0,13.0,59,0.00,,,0.00,0.000000,,2013-12-08 01:42:00,
2013-12-07 20:52:00,10.0,-1.0,-100.00,WSW,239,10.0,13.0,59,0.00,,,0.00,0.000000,,2013-12-08 01:52:00,
2013-12-07 21:02:00,10.0,-1.0,-100.00,WSW,239,10.0,13.0,59,0.00,,,0.00,0.000000,,2013-12-08 02:02:00,
2013-12-07 21:12:00,10.0,-1.0,-100.00,WSW,239,10.0,13.0,59,0.00,,,0.00,0.000000,,2013-12-08 02:12:00,
2013-12-07 21:43:00,8.0,-3.0,-100.00,WSW,242,6.0,10.0,59,0.00,,,0.00,0.000000,,2013-12-08 02:43:00,
2013-12-07 21:52:00,8.0,-3.0,-100.00,WSW,242,6.0,10.0,59,0.00,,,0.00,0.000000,,2013-12-08 02:52:00,
2013-12-07 22:02:00,8.0,-3.0,-100.00,WSW,242,6.0,10.0,59,0.00,,,0.00,0.000000,,2013-12-08 03:02:00,
2013-12-07 22:11:00,8.0,-3.0,-100.00,WSW,242,6.0,10.0,59,0.00,,,0.00,0.000000,,2013-12-08 03:11:00,
2013-12-07 22:44:00,8.0,-4.0,-100.00,WSW,252,10.0,13.0,57,0.00,,,0.00,0.000000,,2013-12-08 03:44:00,
2013-12-07 22:54:00,8.0,-4.0,-100.00,WSW,252,10.0,13.0,57,0.00,,,0.00,0.000000,,2013-12-08 03:54:00,
2013-12-07 23:03:00,-999.0,-99.9,-100.00,WSW,252,10.0,13.0,-999,0.00,,,0.00,0.000000,,2013-12-08 04:03:00,
2013-12-07 23:13:00,8.0,-4.0,-100.00,WSW,252,10.0,13.0,57,0.00,,,0.00,0.000000,,2013-12-08 04:13:00,
2013-12-07 23:43:00,7.0,-6.0,-100.00,WSW,255,8.0,12.0,54,0.00,,,0.00,0.000000,,2013-12-08 04:43:00,
2013-12-07 23:53:00,7.0,-6.0,-100.00,WSW,255,8.0,12.0,54,0.00,,,0.00,0.000000,,2013-12-08 04:53:00,